sensor_id;sensor_type;location;lat;lon;timestamp;P1;durP1;ratioP1;P2;durP2;ratioP2
27223;SDS011;14965;50.660;13.226;2023-04-25T00:02:01;13.18;;;7.75;;
27223;SDS011;14965;50.660;13.226;2023-04-25T00:04:28;13.32;;;7.53;;
27223;SDS011;14965;50.660;13.226;2023-04-25T00:06:54;10.93;;;7.07;;
27223;SDS011;14965;50.660;13.226;2023-04-25T00:09:20;18.38;;;8.15;;
27223;SDS011;14965;50.660;13.226;2023-04-25T00:11:46;13.30;;;7.70;;
27223;SDS011;14965;50.660;13.226;2023-04-25T00:14:12;15.02;;;8.30;;
27223;SDS011;14965;50.660;13.226;2023-04-25T00:16:39;13.85;;;8.02;;
27223;SDS011;14965;50.660;13.226;2023-04-25T00:19:04;14.30;;;8.13;;
27223;SDS011;14965;50.660;13.226;2023-04-25T00:21:32;14.10;;;7.80;;
27223;SDS011;14965;50.660;13.226;2023-04-25T00:23:58;13.43;;;8.13;;
27223;SDS011;14965;50.660;13.226;2023-04-25T00:26:24;13.02;;;7.53;;
27223;SDS011;14965;50.660;13.226;2023-04-25T00:28:50;16.15;;;8.05;;
27223;SDS011;14965;50.660;13.226;2023-04-25T00:31:15;15.10;;;8.65;;
27223;SDS011;14965;50.660;13.226;2023-04-25T00:33:41;14.20;;;7.80;;
27223;SDS011;14965;50.660;13.226;2023-04-25T00:36:07;15.90;;;8.18;;
27223;SDS011;14965;50.660;13.226;2023-04-25T00:38:35;14.98;;;8.93;;
27223;SDS011;14965;50.660;13.226;2023-04-25T00:41:01;14.75;;;8.00;;
27223;SDS011;14965;50.660;13.226;2023-04-25T00:43:27;12.90;;;8.57;;
27223;SDS011;14965;50.660;13.226;2023-04-25T00:45:53;15.23;;;9.00;;
27223;SDS011;14965;50.660;13.226;2023-04-25T00:50:51;14.55;;;8.73;;
27223;SDS011;14965;50.660;13.226;2023-04-25T00:53:18;12.55;;;8.50;;
27223;SDS011;14965;50.660;13.226;2023-04-25T00:55:46;17.35;;;9.20;;
27223;SDS011;14965;50.660;13.226;2023-04-25T00:58:12;15.15;;;9.27;;
27223;SDS011;14965;50.660;13.226;2023-04-25T01:00:39;15.82;;;8.85;;
27223;SDS011;14965;50.660;13.226;2023-04-25T01:03:05;15.35;;;9.00;;
27223;SDS011;14965;50.660;13.226;2023-04-25T01:05:31;18.50;;;9.13;;
27223;SDS011;14965;50.660;13.226;2023-04-25T01:07:57;15.45;;;8.93;;
27223;SDS011;14965;50.660;13.226;2023-04-25T01:10:24;15.43;;;9.32;;
27223;SDS011;14965;50.660;13.226;2023-04-25T01:12:51;13.55;;;8.82;;
27223;SDS011;14965;50.660;13.226;2023-04-25T01:15:17;17.98;;;9.07;;
27223;SDS011;14965;50.660;13.226;2023-04-25T01:17:43;15.43;;;8.95;;
27223;SDS011;14965;50.660;13.226;2023-04-25T01:20:10;14.60;;;9.80;;
27223;SDS011;14965;50.660;13.226;2023-04-25T01:22:40;20.13;;;9.52;;
27223;SDS011;14965;50.660;13.226;2023-04-25T01:25:07;18.65;;;9.57;;
27223;SDS011;14965;50.660;13.226;2023-04-25T01:27:33;15.73;;;9.43;;
27223;SDS011;14965;50.660;13.226;2023-04-25T01:30:00;18.35;;;10.07;;
27223;SDS011;14965;50.660;13.226;2023-04-25T01:32:27;17.13;;;10.00;;
27223;SDS011;14965;50.660;13.226;2023-04-25T01:34:54;17.05;;;10.18;;
27223;SDS011;14965;50.660;13.226;2023-04-25T01:37:21;15.43;;;9.25;;
27223;SDS011;14965;50.660;13.226;2023-04-25T01:39:49;17.05;;;10.38;;
27223;SDS011;14965;50.660;13.226;2023-04-25T01:42:15;16.08;;;10.10;;
27223;SDS011;14965;50.660;13.226;2023-04-25T01:44:41;18.40;;;10.65;;
27223;SDS011;14965;50.660;13.226;2023-04-25T01:47:07;17.27;;;10.00;;
27223;SDS011;14965;50.660;13.226;2023-04-25T01:49:33;17.90;;;10.52;;
27223;SDS011;14965;50.660;13.226;2023-04-25T01:51:59;14.30;;;9.85;;
27223;SDS011;14965;50.660;13.226;2023-04-25T01:54:25;18.05;;;10.43;;
27223;SDS011;14965;50.660;13.226;2023-04-25T01:56:52;17.85;;;10.02;;
27223;SDS011;14965;50.660;13.226;2023-04-25T01:59:18;17.23;;;10.55;;
27223;SDS011;14965;50.660;13.226;2023-04-25T02:01:44;18.02;;;10.35;;
27223;SDS011;14965;50.660;13.226;2023-04-25T02:04:10;20.80;;;10.18;;
27223;SDS011;14965;50.660;13.226;2023-04-25T02:06:36;19.08;;;11.15;;
27223;SDS011;14965;50.660;13.226;2023-04-25T02:09:01;17.58;;;10.10;;
27223;SDS011;14965;50.660;13.226;2023-04-25T02:11:27;19.08;;;10.57;;
27223;SDS011;14965;50.660;13.226;2023-04-25T02:13:54;23.35;;;10.68;;
27223;SDS011;14965;50.660;13.226;2023-04-25T02:16:20;16.98;;;9.98;;
27223;SDS011;14965;50.660;13.226;2023-04-25T02:18:46;16.65;;;10.35;;
27223;SDS011;14965;50.660;13.226;2023-04-25T02:21:12;20.33;;;11.13;;
27223;SDS011;14965;50.660;13.226;2023-04-25T02:23:38;20.55;;;10.20;;
27223;SDS011;14965;50.660;13.226;2023-04-25T02:26:04;17.60;;;10.60;;
27223;SDS011;14965;50.660;13.226;2023-04-25T02:28:30;20.83;;;10.27;;
27223;SDS011;14965;50.660;13.226;2023-04-25T02:30:57;20.13;;;11.05;;
27223;SDS011;14965;50.660;13.226;2023-04-25T02:33:23;16.33;;;9.43;;
27223;SDS011;14965;50.660;13.226;2023-04-25T02:35:49;16.45;;;9.80;;
27223;SDS011;14965;50.660;13.226;2023-04-25T02:38:14;18.95;;;10.18;;
27223;SDS011;14965;50.660;13.226;2023-04-25T02:40:40;16.25;;;9.93;;
27223;SDS011;14965;50.660;13.226;2023-04-25T02:43:06;16.00;;;9.90;;
27223;SDS011;14965;50.660;13.226;2023-04-25T02:45:32;15.15;;;9.40;;
27223;SDS011;14965;50.660;13.226;2023-04-25T02:47:59;21.33;;;9.93;;
27223;SDS011;14965;50.660;13.226;2023-04-25T02:50:25;15.32;;;10.35;;
27223;SDS011;14965;50.660;13.226;2023-04-25T02:52:51;15.57;;;9.23;;
27223;SDS011;14965;50.660;13.226;2023-04-25T02:55:17;18.92;;;9.30;;
27223;SDS011;14965;50.660;13.226;2023-04-25T02:57:43;13.65;;;8.18;;
27223;SDS011;14965;50.660;13.226;2023-04-25T03:00:09;14.45;;;8.93;;
27223;SDS011;14965;50.660;13.226;2023-04-25T03:02:36;17.70;;;9.65;;
27223;SDS011;14965;50.660;13.226;2023-04-25T03:05:04;15.55;;;9.00;;
27223;SDS011;14965;50.660;13.226;2023-04-25T03:07:30;15.90;;;9.48;;
27223;SDS011;14965;50.660;13.226;2023-04-25T03:09:56;16.50;;;9.65;;
27223;SDS011;14965;50.660;13.226;2023-04-25T03:12:22;17.63;;;10.27;;
27223;SDS011;14965;50.660;13.226;2023-04-25T03:14:48;18.23;;;10.65;;
27223;SDS011;14965;50.660;13.226;2023-04-25T03:17:13;20.27;;;10.23;;
27223;SDS011;14965;50.660;13.226;2023-04-25T03:19:39;21.33;;;10.27;;
27223;SDS011;14965;50.660;13.226;2023-04-25T03:22:06;17.92;;;10.70;;
27223;SDS011;14965;50.660;13.226;2023-04-25T03:24:32;23.10;;;12.27;;
27223;SDS011;14965;50.660;13.226;2023-04-25T03:26:58;18.67;;;11.30;;
27223;SDS011;14965;50.660;13.226;2023-04-25T03:29:24;19.13;;;10.02;;
27223;SDS011;14965;50.660;13.226;2023-04-25T03:31:50;16.63;;;10.07;;
27223;SDS011;14965;50.660;13.226;2023-04-25T03:34:16;19.70;;;10.13;;
27223;SDS011;14965;50.660;13.226;2023-04-25T03:36:41;13.65;;;9.18;;
27223;SDS011;14965;50.660;13.226;2023-04-25T03:39:09;13.52;;;8.77;;
27223;SDS011;14965;50.660;13.226;2023-04-25T03:41:34;17.98;;;9.23;;
27223;SDS011;14965;50.660;13.226;2023-04-25T03:44:00;18.20;;;8.88;;
27223;SDS011;14965;50.660;13.226;2023-04-25T03:46:26;16.67;;;9.70;;
27223;SDS011;14965;50.660;13.226;2023-04-25T03:48:52;16.83;;;9.63;;
27223;SDS011;14965;50.660;13.226;2023-04-25T03:51:18;14.85;;;9.65;;
27223;SDS011;14965;50.660;13.226;2023-04-25T03:53:44;16.33;;;9.23;;
27223;SDS011;14965;50.660;13.226;2023-04-25T03:56:11;16.10;;;9.48;;
27223;SDS011;14965;50.660;13.226;2023-04-25T03:58:37;18.58;;;9.65;;
27223;SDS011;14965;50.660;13.226;2023-04-25T04:01:03;17.50;;;9.57;;
27223;SDS011;14965;50.660;13.226;2023-04-25T04:03:28;13.77;;;8.88;;
27223;SDS011;14965;50.660;13.226;2023-04-25T04:05:54;21.17;;;10.60;;
27223;SDS011;14965;50.660;13.226;2023-04-25T04:08:20;14.55;;;9.52;;
27223;SDS011;14965;50.660;13.226;2023-04-25T04:10:46;15.23;;;9.05;;
27223;SDS011;14965;50.660;13.226;2023-04-25T04:13:13;14.90;;;9.35;;
27223;SDS011;14965;50.660;13.226;2023-04-25T04:15:39;14.18;;;9.02;;
27223;SDS011;14965;50.660;13.226;2023-04-25T04:18:05;14.10;;;10.10;;
27223;SDS011;14965;50.660;13.226;2023-04-25T04:20:31;16.88;;;9.25;;
27223;SDS011;14965;50.660;13.226;2023-04-25T04:22:57;16.20;;;9.00;;
27223;SDS011;14965;50.660;13.226;2023-04-25T04:25:23;13.57;;;8.52;;
27223;SDS011;14965;50.660;13.226;2023-04-25T04:27:48;15.70;;;9.35;;
27223;SDS011;14965;50.660;13.226;2023-04-25T04:30:16;17.05;;;9.00;;
27223;SDS011;14965;50.660;13.226;2023-04-25T04:32:41;15.48;;;9.10;;
27223;SDS011;14965;50.660;13.226;2023-04-25T04:35:08;18.88;;;9.10;;
27223;SDS011;14965;50.660;13.226;2023-04-25T04:37:34;19.42;;;9.60;;
27223;SDS011;14965;50.660;13.226;2023-04-25T04:39:59;13.07;;;8.98;;
27223;SDS011;14965;50.660;13.226;2023-04-25T04:42:25;16.20;;;8.57;;
27223;SDS011;14965;50.660;13.226;2023-04-25T04:44:51;13.88;;;8.68;;
27223;SDS011;14965;50.660;13.226;2023-04-25T04:47:18;17.17;;;8.65;;
27223;SDS011;14965;50.660;13.226;2023-04-25T04:49:44;18.20;;;8.68;;
27223;SDS011;14965;50.660;13.226;2023-04-25T04:52:10;13.25;;;9.10;;
27223;SDS011;14965;50.660;13.226;2023-04-25T04:54:36;14.88;;;8.93;;
27223;SDS011;14965;50.660;13.226;2023-04-25T04:57:02;18.15;;;9.60;;
27223;SDS011;14965;50.660;13.226;2023-04-25T04:59:28;15.98;;;9.68;;
27223;SDS011;14965;50.660;13.226;2023-04-25T05:01:53;16.73;;;9.57;;
27223;SDS011;14965;50.660;13.226;2023-04-25T05:04:21;17.35;;;9.52;;
27223;SDS011;14965;50.660;13.226;2023-04-25T05:06:46;12.80;;;9.57;;
27223;SDS011;14965;50.660;13.226;2023-04-25T05:09:12;16.67;;;9.27;;
27223;SDS011;14965;50.660;13.226;2023-04-25T05:11:38;19.17;;;11.70;;
27223;SDS011;14965;50.660;13.226;2023-04-25T05:14:04;17.98;;;10.82;;
27223;SDS011;14965;50.660;13.226;2023-04-25T05:16:30;18.17;;;11.25;;
27223;SDS011;14965;50.660;13.226;2023-04-25T05:18:55;21.67;;;11.77;;
27223;SDS011;14965;50.660;13.226;2023-04-25T05:21:23;21.83;;;12.82;;
27223;SDS011;14965;50.660;13.226;2023-04-25T05:23:49;18.73;;;11.93;;
27223;SDS011;14965;50.660;13.226;2023-04-25T05:26:14;16.98;;;9.57;;
27223;SDS011;14965;50.660;13.226;2023-04-25T05:28:40;18.55;;;10.50;;
27223;SDS011;14965;50.660;13.226;2023-04-25T05:31:06;22.90;;;11.40;;
27223;SDS011;14965;50.660;13.226;2023-04-25T05:33:34;16.95;;;10.88;;
27223;SDS011;14965;50.660;13.226;2023-04-25T05:35:59;13.88;;;9.48;;
27223;SDS011;14965;50.660;13.226;2023-04-25T05:38:27;19.10;;;11.02;;
27223;SDS011;14965;50.660;13.226;2023-04-25T05:40:52;20.13;;;9.88;;
27223;SDS011;14965;50.660;13.226;2023-04-25T05:43:18;16.35;;;10.18;;
27223;SDS011;14965;50.660;13.226;2023-04-25T05:45:44;17.85;;;9.85;;
27223;SDS011;14965;50.660;13.226;2023-04-25T05:48:10;19.25;;;9.55;;
27223;SDS011;14965;50.660;13.226;2023-04-25T05:50:36;18.50;;;9.85;;
27223;SDS011;14965;50.660;13.226;2023-04-25T05:53:02;14.20;;;8.82;;
27223;SDS011;14965;50.660;13.226;2023-04-25T05:55:29;16.98;;;8.82;;
27223;SDS011;14965;50.660;13.226;2023-04-25T05:57:55;19.33;;;10.27;;
27223;SDS011;14965;50.660;13.226;2023-04-25T06:00:20;18.15;;;10.40;;
27223;SDS011;14965;50.660;13.226;2023-04-25T06:02:46;16.83;;;9.13;;
27223;SDS011;14965;50.660;13.226;2023-04-25T06:05:12;16.25;;;9.38;;
27223;SDS011;14965;50.660;13.226;2023-04-25T06:07:38;15.88;;;8.98;;
27223;SDS011;14965;50.660;13.226;2023-04-25T06:10:04;15.80;;;8.43;;
27223;SDS011;14965;50.660;13.226;2023-04-25T06:12:33;15.50;;;8.68;;
27223;SDS011;14965;50.660;13.226;2023-04-25T06:14:59;17.42;;;8.18;;
27223;SDS011;14965;50.660;13.226;2023-04-25T06:17:25;18.33;;;9.70;;
27223;SDS011;14965;50.660;13.226;2023-04-25T06:19:51;15.93;;;8.50;;
27223;SDS011;14965;50.660;13.226;2023-04-25T06:22:17;13.18;;;8.23;;
27223;SDS011;14965;50.660;13.226;2023-04-25T06:24:43;16.83;;;8.23;;
27223;SDS011;14965;50.660;13.226;2023-04-25T06:27:08;14.57;;;9.02;;
27223;SDS011;14965;50.660;13.226;2023-04-25T06:29:36;15.77;;;8.25;;
27223;SDS011;14965;50.660;13.226;2023-04-25T06:32:01;17.75;;;8.75;;
27223;SDS011;14965;50.660;13.226;2023-04-25T06:34:27;15.27;;;8.20;;
27223;SDS011;14965;50.660;13.226;2023-04-25T06:36:53;15.13;;;8.00;;
27223;SDS011;14965;50.660;13.226;2023-04-25T06:39:19;18.65;;;9.15;;
27223;SDS011;14965;50.660;13.226;2023-04-25T06:41:45;16.88;;;8.05;;
27223;SDS011;14965;50.660;13.226;2023-04-25T06:44:11;18.92;;;8.77;;
27223;SDS011;14965;50.660;13.226;2023-04-25T06:46:38;15.50;;;7.78;;
27223;SDS011;14965;50.660;13.226;2023-04-25T06:49:03;16.77;;;8.35;;
27223;SDS011;14965;50.660;13.226;2023-04-25T06:51:29;15.60;;;8.40;;
27223;SDS011;14965;50.660;13.226;2023-04-25T06:53:55;17.67;;;8.75;;
27223;SDS011;14965;50.660;13.226;2023-04-25T06:56:21;18.70;;;9.13;;
27223;SDS011;14965;50.660;13.226;2023-04-25T06:58:47;16.80;;;9.18;;
27223;SDS011;14965;50.660;13.226;2023-04-25T07:01:12;20.48;;;9.55;;
27223;SDS011;14965;50.660;13.226;2023-04-25T07:03:40;16.92;;;9.80;;
27223;SDS011;14965;50.660;13.226;2023-04-25T07:06:06;13.73;;;8.88;;
27223;SDS011;14965;50.660;13.226;2023-04-25T07:08:32;16.95;;;8.40;;
27223;SDS011;14965;50.660;13.226;2023-04-25T07:10:57;12.63;;;7.50;;
27223;SDS011;14965;50.660;13.226;2023-04-25T07:13:23;14.02;;;7.45;;
27223;SDS011;14965;50.660;13.226;2023-04-25T07:15:49;12.35;;;6.40;;
27223;SDS011;14965;50.660;13.226;2023-04-25T07:18:15;12.95;;;7.63;;
27223;SDS011;14965;50.660;13.226;2023-04-25T07:20:42;13.82;;;7.28;;
27223;SDS011;14965;50.660;13.226;2023-04-25T07:23:08;12.07;;;6.80;;
27223;SDS011;14965;50.660;13.226;2023-04-25T07:25:34;12.30;;;6.55;;
27223;SDS011;14965;50.660;13.226;2023-04-25T07:28:00;13.35;;;8.18;;
27223;SDS011;14965;50.660;13.226;2023-04-25T07:30:26;14.00;;;7.78;;
27223;SDS011;14965;50.660;13.226;2023-04-25T07:32:52;12.65;;;7.63;;
27223;SDS011;14965;50.660;13.226;2023-04-25T07:35:17;11.15;;;7.82;;
27223;SDS011;14965;50.660;13.226;2023-04-25T07:37:45;11.25;;;7.80;;
27223;SDS011;14965;50.660;13.226;2023-04-25T07:40:11;13.13;;;7.50;;
27223;SDS011;14965;50.660;13.226;2023-04-25T07:42:37;9.63;;;6.13;;
27223;SDS011;14965;50.660;13.226;2023-04-25T07:45:03;14.43;;;6.10;;
27223;SDS011;14965;50.660;13.226;2023-04-25T07:47:30;8.90;;;5.35;;
27223;SDS011;14965;50.660;13.226;2023-04-25T07:49:55;8.57;;;5.50;;
27223;SDS011;14965;50.660;13.226;2023-04-25T07:52:21;11.82;;;5.75;;
27223;SDS011;14965;50.660;13.226;2023-04-25T07:54:49;9.50;;;5.88;;
27223;SDS011;14965;50.660;13.226;2023-04-25T07:57:14;11.68;;;6.30;;
27223;SDS011;14965;50.660;13.226;2023-04-25T07:59:40;14.15;;;6.45;;
27223;SDS011;14965;50.660;13.226;2023-04-25T08:02:06;11.02;;;5.88;;
27223;SDS011;14965;50.660;13.226;2023-04-25T08:04:32;7.88;;;5.13;;
27223;SDS011;14965;50.660;13.226;2023-04-25T08:06:58;8.63;;;4.68;;
27223;SDS011;14965;50.660;13.226;2023-04-25T08:09:23;8.23;;;4.60;;
27223;SDS011;14965;50.660;13.226;2023-04-25T08:11:51;8.63;;;5.28;;
27223;SDS011;14965;50.660;13.226;2023-04-25T08:14:16;9.45;;;5.10;;
27223;SDS011;14965;50.660;13.226;2023-04-25T08:16:42;22.73;;;12.68;;
27223;SDS011;14965;50.660;13.226;2023-04-25T08:19:08;13.82;;;8.02;;
27223;SDS011;14965;50.660;13.226;2023-04-25T08:21:35;11.07;;;6.10;;
27223;SDS011;14965;50.660;13.226;2023-04-25T08:24:01;11.70;;;6.20;;
27223;SDS011;14965;50.660;13.226;2023-04-25T08:26:28;11.00;;;6.57;;
27223;SDS011;14965;50.660;13.226;2023-04-25T08:28:55;14.63;;;7.68;;
27223;SDS011;14965;50.660;13.226;2023-04-25T08:31:21;14.63;;;8.25;;
27223;SDS011;14965;50.660;13.226;2023-04-25T08:33:46;21.30;;;10.32;;
27223;SDS011;14965;50.660;13.226;2023-04-25T08:36:12;17.00;;;9.68;;
27223;SDS011;14965;50.660;13.226;2023-04-25T08:38:38;19.55;;;10.18;;
27223;SDS011;14965;50.660;13.226;2023-04-25T08:41:04;15.52;;;9.55;;
27223;SDS011;14965;50.660;13.226;2023-04-25T08:43:31;15.85;;;9.80;;
27223;SDS011;14965;50.660;13.226;2023-04-25T08:46:01;17.33;;;10.85;;
27223;SDS011;14965;50.660;13.226;2023-04-25T08:48:27;16.83;;;10.02;;
27223;SDS011;14965;50.660;13.226;2023-04-25T08:50:54;17.73;;;10.00;;
27223;SDS011;14965;50.660;13.226;2023-04-25T08:53:22;15.63;;;9.57;;
27223;SDS011;14965;50.660;13.226;2023-04-25T08:55:52;19.70;;;10.10;;
27223;SDS011;14965;50.660;13.226;2023-04-25T08:58:20;16.13;;;9.13;;
27223;SDS011;14965;50.660;13.226;2023-04-25T09:00:46;15.55;;;8.68;;
27223;SDS011;14965;50.660;13.226;2023-04-25T09:03:14;14.02;;;8.02;;
27223;SDS011;14965;50.660;13.226;2023-04-25T09:05:40;21.15;;;7.80;;
27223;SDS011;14965;50.660;13.226;2023-04-25T09:08:07;10.18;;;6.45;;
27223;SDS011;14965;50.660;13.226;2023-04-25T09:10:33;12.52;;;7.15;;
27223;SDS011;14965;50.660;13.226;2023-04-25T09:13:03;12.82;;;7.22;;
27223;SDS011;14965;50.660;13.226;2023-04-25T09:15:31;9.85;;;6.88;;
27223;SDS011;14965;50.660;13.226;2023-04-25T09:17:58;12.70;;;6.80;;
27223;SDS011;14965;50.660;13.226;2023-04-25T09:20:26;14.15;;;7.38;;
27223;SDS011;14965;50.660;13.226;2023-04-25T09:23:00;13.75;;;7.20;;
27223;SDS011;14965;50.660;13.226;2023-04-25T09:25:28;16.25;;;7.50;;
27223;SDS011;14965;50.660;13.226;2023-04-25T09:28:00;13.70;;;7.13;;
27223;SDS011;14965;50.660;13.226;2023-04-25T09:30:30;12.80;;;6.95;;
27223;SDS011;14965;50.660;13.226;2023-04-25T09:43:47;15.95;;;7.63;;
27223;SDS011;14965;50.660;13.226;2023-04-25T09:46:23;12.25;;;7.10;;
27223;SDS011;14965;50.660;13.226;2023-04-25T09:49:11;11.87;;;6.90;;
27223;SDS011;14965;50.660;13.226;2023-04-25T09:51:44;11.80;;;7.18;;
27223;SDS011;14965;50.660;13.226;2023-04-25T09:55:17;10.93;;;6.30;;
27223;SDS011;14965;50.660;13.226;2023-04-25T13:31:30;26.63;;;14.50;;
27223;SDS011;14965;50.660;13.226;2023-04-25T13:33:56;25.10;;;14.88;;
27223;SDS011;14965;50.660;13.226;2023-04-25T13:36:22;29.23;;;14.23;;
27223;SDS011;14965;50.660;13.226;2023-04-25T13:39:03;25.88;;;12.93;;
27223;SDS011;14965;50.660;13.226;2023-04-25T13:41:31;20.52;;;13.25;;
27223;SDS011;14965;50.660;13.226;2023-04-25T14:03:07;22.38;;;13.13;;
27223;SDS011;14965;50.660;13.226;2023-04-25T14:09:20;23.93;;;13.17;;
27223;SDS011;14965;50.660;13.226;2023-04-25T14:11:46;18.70;;;11.15;;
27223;SDS011;14965;50.660;13.226;2023-04-25T14:14:12;21.38;;;11.77;;
27223;SDS011;14965;50.660;13.226;2023-04-25T14:16:39;24.50;;;13.38;;
27223;SDS011;14965;50.660;13.226;2023-04-25T14:19:05;18.90;;;11.93;;
27223;SDS011;14965;50.660;13.226;2023-04-25T14:21:31;20.50;;;10.63;;
27223;SDS011;14965;50.660;13.226;2023-04-25T14:23:57;26.02;;;11.38;;
27223;SDS011;14965;50.660;13.226;2023-04-25T14:26:23;19.70;;;10.65;;
27223;SDS011;14965;50.660;13.226;2023-04-25T14:28:50;24.10;;;10.95;;
27223;SDS011;14965;50.660;13.226;2023-04-25T14:31:17;21.40;;;10.25;;
27223;SDS011;14965;50.660;13.226;2023-04-25T14:33:44;17.63;;;9.93;;
27223;SDS011;14965;50.660;13.226;2023-04-25T14:36:10;21.65;;;10.30;;
27223;SDS011;14965;50.660;13.226;2023-04-25T14:38:36;19.77;;;9.30;;
27223;SDS011;14965;50.660;13.226;2023-04-25T14:41:02;18.33;;;9.32;;
27223;SDS011;14965;50.660;13.226;2023-04-25T14:43:28;18.38;;;9.02;;
27223;SDS011;14965;50.660;13.226;2023-04-25T14:45:54;19.52;;;8.93;;
27223;SDS011;14965;50.660;13.226;2023-04-25T14:48:20;19.08;;;9.10;;
27223;SDS011;14965;50.660;13.226;2023-04-25T14:50:47;21.77;;;8.80;;
27223;SDS011;14965;50.660;13.226;2023-04-25T14:53:14;19.02;;;9.20;;
27223;SDS011;14965;50.660;13.226;2023-04-25T14:55:40;17.48;;;7.80;;
27223;SDS011;14965;50.660;13.226;2023-04-25T14:58:08;18.20;;;8.40;;
27223;SDS011;14965;50.660;13.226;2023-04-25T15:00:34;24.98;;;8.38;;
27223;SDS011;14965;50.660;13.226;2023-04-25T15:03:00;15.35;;;7.38;;
27223;SDS011;14965;50.660;13.226;2023-04-25T15:05:26;18.30;;;8.18;;
27223;SDS011;14965;50.660;13.226;2023-04-25T15:07:53;20.52;;;7.70;;
27223;SDS011;14965;50.660;13.226;2023-04-25T15:10:19;17.33;;;7.78;;
27223;SDS011;14965;50.660;13.226;2023-04-25T15:12:47;18.13;;;8.48;;
27223;SDS011;14965;50.660;13.226;2023-04-25T15:15:13;19.33;;;8.65;;
27223;SDS011;14965;50.660;13.226;2023-04-25T15:17:40;22.08;;;8.85;;
27223;SDS011;14965;50.660;13.226;2023-04-25T15:20:07;22.85;;;8.82;;
27223;SDS011;14965;50.660;13.226;2023-04-25T15:25:04;17.73;;;8.32;;
27223;SDS011;14965;50.660;13.226;2023-04-25T15:27:30;17.63;;;8.25;;
27223;SDS011;14965;50.660;13.226;2023-04-25T15:29:56;21.63;;;7.38;;
27223;SDS011;14965;50.660;13.226;2023-04-25T15:32:22;18.00;;;8.38;;
27223;SDS011;14965;50.660;13.226;2023-04-25T15:34:48;20.45;;;8.02;;
27223;SDS011;14965;50.660;13.226;2023-04-25T15:37:14;20.23;;;8.07;;
27223;SDS011;14965;50.660;13.226;2023-04-25T15:39:39;23.00;;;9.63;;
27223;SDS011;14965;50.660;13.226;2023-04-25T15:42:07;20.27;;;8.88;;
27223;SDS011;14965;50.660;13.226;2023-04-25T15:44:33;24.05;;;10.48;;
27223;SDS011;14965;50.660;13.226;2023-04-25T15:46:59;26.48;;;10.85;;
27223;SDS011;14965;50.660;13.226;2023-04-25T15:49:25;26.60;;;10.75;;
27223;SDS011;14965;50.660;13.226;2023-04-25T15:51:50;25.17;;;10.57;;
27223;SDS011;14965;50.660;13.226;2023-04-25T15:54:16;25.42;;;10.95;;
27223;SDS011;14965;50.660;13.226;2023-04-25T15:56:42;21.85;;;11.13;;
27223;SDS011;14965;50.660;13.226;2023-04-25T15:59:09;23.25;;;11.20;;
27223;SDS011;14965;50.660;13.226;2023-04-25T16:01:35;25.60;;;12.88;;
27223;SDS011;14965;50.660;13.226;2023-04-25T16:04:01;19.85;;;9.70;;
27223;SDS011;14965;50.660;13.226;2023-04-25T16:06:27;20.88;;;10.05;;
27223;SDS011;14965;50.660;13.226;2023-04-25T16:08:53;25.58;;;10.50;;
27223;SDS011;14965;50.660;13.226;2023-04-25T16:11:19;21.15;;;10.98;;
27223;SDS011;14965;50.660;13.226;2023-04-25T16:13:46;20.58;;;10.93;;
27223;SDS011;14965;50.660;13.226;2023-04-25T16:16:14;30.13;;;11.02;;
27223;SDS011;14965;50.660;13.226;2023-04-25T16:18:40;21.13;;;9.80;;
27223;SDS011;14965;50.660;13.226;2023-04-25T16:21:06;21.77;;;10.52;;
27223;SDS011;14965;50.660;13.226;2023-04-25T16:23:32;25.73;;;11.15;;
27223;SDS011;14965;50.660;13.226;2023-04-25T16:25:58;22.35;;;9.38;;
27223;SDS011;14965;50.660;13.226;2023-04-25T16:28:25;26.35;;;10.13;;
27223;SDS011;14965;50.660;13.226;2023-04-25T16:30:50;24.30;;;10.32;;
27223;SDS011;14965;50.660;13.226;2023-04-25T16:33:17;20.58;;;10.20;;
27223;SDS011;14965;50.660;13.226;2023-04-25T16:35:43;23.90;;;10.15;;
27223;SDS011;14965;50.660;13.226;2023-04-25T16:38:09;22.65;;;10.02;;
27223;SDS011;14965;50.660;13.226;2023-04-25T16:40:35;22.67;;;9.60;;
27223;SDS011;14965;50.660;13.226;2023-04-25T16:43:01;20.73;;;11.32;;
27223;SDS011;14965;50.660;13.226;2023-04-25T16:45:26;21.08;;;8.35;;
27223;SDS011;14965;50.660;13.226;2023-04-25T16:47:52;20.20;;;8.05;;
27223;SDS011;14965;50.660;13.226;2023-04-25T16:50:20;21.63;;;8.13;;
27223;SDS011;14965;50.660;13.226;2023-04-25T16:52:46;28.92;;;9.32;;
27223;SDS011;14965;50.660;13.226;2023-04-25T16:55:11;21.95;;;8.90;;
27223;SDS011;14965;50.660;13.226;2023-04-25T16:57:37;21.00;;;8.68;;
27223;SDS011;14965;50.660;13.226;2023-04-25T17:00:04;21.75;;;8.73;;
27223;SDS011;14965;50.660;13.226;2023-04-25T17:02:31;27.42;;;8.98;;
27223;SDS011;14965;50.660;13.226;2023-04-25T17:04:57;27.92;;;9.43;;
27223;SDS011;14965;50.660;13.226;2023-04-25T17:07:24;26.15;;;8.68;;
27223;SDS011;14965;50.660;13.226;2023-04-25T17:09:50;22.17;;;9.27;;
27223;SDS011;14965;50.660;13.226;2023-04-25T17:12:16;22.92;;;8.23;;
27223;SDS011;14965;50.660;13.226;2023-04-25T17:14:41;23.95;;;8.80;;
27223;SDS011;14965;50.660;13.226;2023-04-25T17:17:07;24.30;;;8.63;;
27223;SDS011;14965;50.660;13.226;2023-04-25T17:19:33;31.10;;;9.57;;
27223;SDS011;14965;50.660;13.226;2023-04-25T17:21:59;24.15;;;9.40;;
27223;SDS011;14965;50.660;13.226;2023-04-25T17:24:26;25.65;;;9.38;;
27223;SDS011;14965;50.660;13.226;2023-04-25T17:26:52;22.02;;;9.52;;
27223;SDS011;14965;50.660;13.226;2023-04-25T17:29:18;25.23;;;9.25;;
27223;SDS011;14965;50.660;13.226;2023-04-25T17:31:44;22.67;;;8.07;;
27223;SDS011;14965;50.660;13.226;2023-04-25T17:34:11;22.10;;;7.88;;
27223;SDS011;14965;50.660;13.226;2023-04-25T17:36:37;25.90;;;7.75;;
27223;SDS011;14965;50.660;13.226;2023-04-25T17:39:03;26.23;;;8.23;;
27223;SDS011;14965;50.660;13.226;2023-04-25T17:41:30;18.55;;;7.68;;
27223;SDS011;14965;50.660;13.226;2023-04-25T17:43:56;19.67;;;7.63;;
27223;SDS011;14965;50.660;13.226;2023-04-25T17:46:22;20.27;;;7.18;;
27223;SDS011;14965;50.660;13.226;2023-04-25T17:48:47;18.60;;;6.55;;
27223;SDS011;14965;50.660;13.226;2023-04-25T17:51:13;24.70;;;6.53;;
27223;SDS011;14965;50.660;13.226;2023-04-25T17:53:39;18.35;;;6.63;;
27223;SDS011;14965;50.660;13.226;2023-04-25T17:56:05;18.80;;;7.38;;
27223;SDS011;14965;50.660;13.226;2023-04-25T17:58:32;20.38;;;7.43;;
27223;SDS011;14965;50.660;13.226;2023-04-25T18:00:58;23.98;;;7.05;;
27223;SDS011;14965;50.660;13.226;2023-04-25T18:03:24;20.73;;;7.18;;
27223;SDS011;14965;50.660;13.226;2023-04-25T18:05:50;18.20;;;7.45;;
27223;SDS011;14965;50.660;13.226;2023-04-25T18:08:16;21.75;;;7.53;;
27223;SDS011;14965;50.660;13.226;2023-04-25T18:10:41;15.10;;;6.22;;
27223;SDS011;14965;50.660;13.226;2023-04-25T18:13:07;24.88;;;7.10;;
27223;SDS011;14965;50.660;13.226;2023-04-25T18:15:34;23.27;;;7.38;;
27223;SDS011;14965;50.660;13.226;2023-04-25T18:18:00;16.88;;;7.30;;
27223;SDS011;14965;50.660;13.226;2023-04-25T18:20:26;22.85;;;7.32;;
27223;SDS011;14965;50.660;13.226;2023-04-25T18:22:52;19.92;;;7.25;;
27223;SDS011;14965;50.660;13.226;2023-04-25T18:25:18;20.27;;;7.88;;
27223;SDS011;14965;50.660;13.226;2023-04-25T18:27:43;22.25;;;8.00;;